createdAt,value
2018-07-27T00:00:43.165Z,0.00
2018-07-27T00:01:43.111Z,0.00
2018-07-27T00:02:42.993Z,0.00
2018-07-27T00:03:42.902Z,0.00
2018-07-27T00:04:42.814Z,0.00
2018-07-27T00:05:42.724Z,0.00
2018-07-27T00:06:42.668Z,0.00
2018-07-27T00:07:42.550Z,0.00
2018-07-27T00:08:42.561Z,0.00
2018-07-27T00:09:42.382Z,0.00
2018-07-27T00:10:42.289Z,0.00
2018-07-27T00:11:42.238Z,0.00
2018-07-27T00:12:42.116Z,0.00
2018-07-27T00:13:42.029Z,0.00
2018-07-27T00:14:41.944Z,0.00
2018-07-27T00:15:41.857Z,0.00
2018-07-27T00:16:41.798Z,0.00
2018-07-27T00:17:41.681Z,0.00
2018-07-27T00:18:41.596Z,0.00
2018-07-27T00:19:41.505Z,0.00
2018-07-27T00:20:41.424Z,0.00
2018-07-27T00:21:41.363Z,0.00
2018-07-27T00:22:41.247Z,0.00
2018-07-27T00:23:41.160Z,0.00
2018-07-27T00:24:41.070Z,0.00
2018-07-27T00:25:40.984Z,0.00
2018-07-27T00:26:40.927Z,0.00
2018-07-27T00:27:40.809Z,0.00
2018-07-27T00:28:40.724Z,0.00
2018-07-27T00:29:40.639Z,0.00
2018-07-27T00:30:40.548Z,0.00
2018-07-27T00:31:40.493Z,0.00
2018-07-27T00:32:40.377Z,0.00
2018-07-27T00:33:40.287Z,0.00
2018-07-27T00:34:40.200Z,0.00
2018-07-27T00:35:40.114Z,0.00
2018-07-27T00:36:40.078Z,0.00
2018-07-27T00:37:39.938Z,0.00
2018-07-27T00:38:39.854Z,0.00
2018-07-27T00:39:39.765Z,0.00
2018-07-27T00:40:39.679Z,0.00
2018-07-27T00:41:39.594Z,0.00
2018-07-27T00:42:39.534Z,0.00
2018-07-27T00:43:39.418Z,0.00
2018-07-27T00:44:39.334Z,0.00
2018-07-27T00:45:39.247Z,0.00
2018-07-27T00:46:39.159Z,0.00
2018-07-27T00:47:39.117Z,0.00
2018-07-27T00:48:38.983Z,0.00
2018-07-27T00:49:38.895Z,0.00
2018-07-27T00:50:38.809Z,0.00
2018-07-27T00:51:38.726Z,0.00
2018-07-27T00:52:38.665Z,0.00
2018-07-27T00:53:38.547Z,0.00
2018-07-27T00:54:38.462Z,0.00
2018-07-27T00:55:38.376Z,0.00
2018-07-27T00:56:38.288Z,0.00
2018-07-27T00:57:38.233Z,0.00
2018-07-27T00:58:38.111Z,0.00
2018-07-27T00:59:38.026Z,0.00
2018-07-27T01:00:37.938Z,0.00
2018-07-27T01:01:37.851Z,0.00
2018-07-27T01:02:37.799Z,0.00
2018-07-27T01:03:37.678Z,0.00
2018-07-27T01:04:37.592Z,0.00
2018-07-27T01:05:37.506Z,0.00
2018-07-27T01:06:37.416Z,0.00
2018-07-27T01:07:37.362Z,0.00
2018-07-27T01:08:37.244Z,0.00
2018-07-27T01:09:37.154Z,0.00
2018-07-27T01:10:37.066Z,0.00
2018-07-27T01:11:36.979Z,0.00
2018-07-27T01:12:36.927Z,0.00
2018-07-27T01:13:36.809Z,0.00
2018-07-27T01:14:36.717Z,0.00
2018-07-27T01:15:36.632Z,0.00
2018-07-27T01:16:36.549Z,0.00
2018-07-27T01:17:36.578Z,0.00
2018-07-27T01:18:36.368Z,0.00
2018-07-27T01:19:36.284Z,0.00
2018-07-27T01:20:36.194Z,0.00
2018-07-27T01:21:36.109Z,0.00
2018-07-27T01:22:36.052Z,0.00
2018-07-27T01:23:35.934Z,0.00
2018-07-27T01:24:35.845Z,0.00
2018-07-27T01:25:35.758Z,0.00
2018-07-27T01:26:35.670Z,0.00
2018-07-27T01:27:35.615Z,0.00
2018-07-27T01:28:35.496Z,0.00
2018-07-27T01:29:35.409Z,0.00
2018-07-27T01:30:35.317Z,0.00
2018-07-27T01:31:35.231Z,0.00
2018-07-27T01:32:35.179Z,0.00
2018-07-27T01:33:35.058Z,0.00
2018-07-27T01:34:34.971Z,0.00
2018-07-27T01:35:34.883Z,0.00
2018-07-27T01:36:34.796Z,0.00
2018-07-27T01:37:34.738Z,0.00
2018-07-27T01:38:34.618Z,0.00
2018-07-27T01:39:34.531Z,0.00
2018-07-27T01:40:34.449Z,0.00
2018-07-27T01:41:34.357Z,0.00
2018-07-27T01:42:34.296Z,0.00
2018-07-27T01:43:34.181Z,0.00
2018-07-27T01:44:34.090Z,0.00
2018-07-27T01:45:34.001Z,0.00
2018-07-27T01:46:33.919Z,0.00
2018-07-27T01:47:33.859Z,0.00
2018-07-27T01:48:33.739Z,0.00
2018-07-27T01:49:33.649Z,0.00
2018-07-27T01:50:33.566Z,0.00
2018-07-27T01:51:33.476Z,0.00
2018-07-27T01:52:33.420Z,0.00
2018-07-27T01:53:33.300Z,0.00
2018-07-27T01:54:33.211Z,0.00
2018-07-27T01:55:33.124Z,0.00
2018-07-27T01:56:33.036Z,0.00
2018-07-27T01:57:32.977Z,0.00
2018-07-27T01:58:32.862Z,0.00
2018-07-27T01:59:32.771Z,0.00
2018-07-27T02:00:32.684Z,0.00
2018-07-27T02:01:32.596Z,0.00
2018-07-27T02:02:32.539Z,0.00
2018-07-27T02:03:32.420Z,0.00
2018-07-27T02:04:32.332Z,0.00
2018-07-27T02:05:32.243Z,0.00
2018-07-27T02:06:32.158Z,0.00
2018-07-27T02:07:32.075Z,0.00
2018-07-27T02:08:32.015Z,0.00
2018-07-27T02:09:31.894Z,0.00
2018-07-27T02:10:31.808Z,0.00
2018-07-27T02:11:31.717Z,0.00
2018-07-27T02:12:31.631Z,0.00
2018-07-27T02:13:31.573Z,0.00
2018-07-27T02:14:31.720Z,0.00
2018-07-27T02:15:31.369Z,0.00
2018-07-27T02:16:31.280Z,0.00
2018-07-27T02:17:31.194Z,0.00
2018-07-27T02:18:31.133Z,0.00
2018-07-27T02:19:31.016Z,0.00
2018-07-27T02:20:30.928Z,0.00
2018-07-27T02:21:30.935Z,0.00
2018-07-27T02:22:30.754Z,0.00
2018-07-27T02:23:30.700Z,0.00
2018-07-27T02:24:30.599Z,0.00
2018-07-27T02:25:30.487Z,0.00
2018-07-27T02:26:30.403Z,0.00
2018-07-27T02:27:30.315Z,0.00
2018-07-27T02:28:30.348Z,0.00
2018-07-27T02:29:30.142Z,0.00
2018-07-27T02:30:30.050Z,0.00
2018-07-27T02:31:29.966Z,0.00
2018-07-27T02:32:29.880Z,0.00
2018-07-27T02:33:29.823Z,0.00
2018-07-27T02:34:29.702Z,0.00
2018-07-27T02:35:29.718Z,0.00
2018-07-27T02:36:29.525Z,0.00
2018-07-27T02:37:29.439Z,0.00
2018-07-27T02:38:29.381Z,0.00
2018-07-27T02:39:29.263Z,0.00
2018-07-27T02:40:29.181Z,0.00
2018-07-27T02:41:29.089Z,0.00
2018-07-27T02:42:29.093Z,0.00
2018-07-27T02:43:28.946Z,0.00
2018-07-27T02:44:28.828Z,0.00
2018-07-27T02:45:28.743Z,0.00
2018-07-27T02:46:28.647Z,0.00
2018-07-27T02:47:28.561Z,0.00
2018-07-27T02:48:28.507Z,0.00
2018-07-27T02:49:28.481Z,0.00
2018-07-27T02:50:28.299Z,0.00
2018-07-27T02:51:28.271Z,4.00
2018-07-27T02:52:28.122Z,4.00
2018-07-27T02:53:28.072Z,0.00
2018-07-27T02:54:27.947Z,0.00
2018-07-27T02:55:27.856Z,4.00
2018-07-27T02:56:27.874Z,4.00
2018-07-27T02:57:27.685Z,4.00
2018-07-27T02:58:27.628Z,4.00
2018-07-27T02:59:27.511Z,4.00
2018-07-27T03:00:27.421Z,8.00
2018-07-27T03:01:27.335Z,8.00
2018-07-27T03:02:27.250Z,8.00
2018-07-27T03:03:27.281Z,8.00
2018-07-27T03:04:27.070Z,12.00
2018-07-27T03:05:26.991Z,12.00
2018-07-27T03:06:26.895Z,16.00
2018-07-27T03:07:26.809Z,16.00
2018-07-27T03:08:26.750Z,20.00
2018-07-27T03:09:26.632Z,24.00
2018-07-27T03:10:26.643Z,28.00
2018-07-27T03:11:26.456Z,28.00
2018-07-27T03:12:26.368Z,36.00
2018-07-27T03:13:26.313Z,40.00
2018-07-27T03:14:26.193Z,44.00
2018-07-27T03:15:26.108Z,52.00
2018-07-27T03:16:26.020Z,56.00
2018-07-27T03:17:25.930Z,68.00
2018-07-27T03:18:25.887Z,76.00
2018-07-27T03:19:25.768Z,84.00
2018-07-27T03:20:25.667Z,100.00
2018-07-27T03:21:25.582Z,116.00
2018-07-27T03:22:25.492Z,128.00
2018-07-27T03:23:25.436Z,144.00
2018-07-27T03:24:25.315Z,160.00
2018-07-27T03:25:25.229Z,176.00
2018-07-27T03:26:25.144Z,192.00
2018-07-27T03:27:25.051Z,204.00
2018-07-27T03:28:24.992Z,224.00
2018-07-27T03:29:24.877Z,256.00
2018-07-27T03:30:24.789Z,284.00
2018-07-27T03:31:24.700Z,304.00
2018-07-27T03:32:24.612Z,328.00
2018-07-27T03:33:24.556Z,348.00
2018-07-27T03:34:24.434Z,376.00
2018-07-27T03:35:24.347Z,400.00
2018-07-27T03:36:24.261Z,424.00
2018-07-27T03:37:24.170Z,452.00
2018-07-27T03:38:24.113Z,476.00
2018-07-27T03:39:24.006Z,500.00
2018-07-27T03:40:23.905Z,528.00
2018-07-27T03:41:23.817Z,560.00
2018-07-27T03:42:23.725Z,588.00
2018-07-27T03:43:23.643Z,624.00
2018-07-27T03:44:23.582Z,656.00
2018-07-27T03:45:23.462Z,688.00
2018-07-27T03:46:23.373Z,724.00
2018-07-27T03:47:23.287Z,760.00
2018-07-27T03:48:23.199Z,800.00
2018-07-27T03:49:23.140Z,836.00
2018-07-27T03:50:23.021Z,876.00
2018-07-27T03:51:22.941Z,916.00
2018-07-27T03:52:22.842Z,956.00
2018-07-27T03:53:22.753Z,992.00
2018-07-27T03:54:22.693Z,1036.00
2018-07-27T03:55:22.575Z,1076.00
2018-07-27T03:56:22.489Z,1120.00
2018-07-27T03:57:22.401Z,1164.00
2018-07-27T03:58:22.309Z,1204.00
2018-07-27T03:59:22.255Z,1248.00
2018-07-27T04:00:22.132Z,1292.00
2018-07-27T04:01:22.044Z,1340.00
2018-07-27T04:02:22.004Z,1384.00
2018-07-27T04:03:21.866Z,1428.00
2018-07-27T04:04:21.809Z,1476.00
2018-07-27T04:05:21.686Z,1520.00
2018-07-27T04:06:21.597Z,1564.00
2018-07-27T04:07:21.520Z,1608.00
2018-07-27T04:08:21.421Z,1656.00
2018-07-27T04:09:21.361Z,1704.00
2018-07-27T04:10:21.242Z,1744.00
2018-07-27T04:11:21.154Z,1784.00
2018-07-27T04:12:21.070Z,1832.00
2018-07-27T04:13:20.978Z,1876.00
2018-07-27T04:14:20.917Z,1920.00
2018-07-27T04:15:20.800Z,1964.00
2018-07-27T04:16:20.714Z,2008.00
2018-07-27T04:17:20.621Z,2052.00
2018-07-27T04:18:20.532Z,2096.00
2018-07-27T04:19:20.479Z,2136.00
2018-07-27T04:20:20.356Z,2176.00
2018-07-27T04:21:20.265Z,2220.00
2018-07-27T04:22:20.213Z,2264.00
2018-07-27T04:23:20.091Z,2304.00
2018-07-27T04:24:20.034Z,2348.00
2018-07-27T04:25:19.912Z,2400.00
2018-07-27T04:26:19.883Z,2664.00
2018-07-27T04:27:19.741Z,2736.00
2018-07-27T04:28:19.644Z,2536.00
2018-07-27T04:29:19.585Z,2568.00
2018-07-27T04:30:19.469Z,2680.00
2018-07-27T04:31:19.379Z,2724.00
2018-07-27T04:32:19.289Z,2752.00
2018-07-27T04:33:19.305Z,2984.00
2018-07-27T04:34:19.140Z,2924.00
2018-07-27T04:35:19.022Z,2876.00
2018-07-27T04:36:18.934Z,2912.00
2018-07-27T04:37:18.847Z,2956.00
2018-07-27T04:38:18.760Z,2992.00
2018-07-27T04:39:18.697Z,3032.00
2018-07-27T04:40:18.579Z,3072.00
2018-07-27T04:41:18.536Z,3112.00
2018-07-27T04:42:18.402Z,3156.00
2018-07-27T04:43:18.334Z,3196.00
2018-07-27T04:44:18.256Z,3248.00
2018-07-27T04:45:18.136Z,3300.00
2018-07-27T04:46:18.049Z,3340.00
2018-07-27T04:47:18.050Z,3384.00
2018-07-27T04:48:17.875Z,3456.00
2018-07-27T04:49:17.818Z,3528.00
2018-07-27T04:50:17.697Z,3672.00
2018-07-27T04:51:17.603Z,3688.00
2018-07-27T04:52:17.519Z,3680.00
2018-07-27T04:53:17.431Z,3724.00
2018-07-27T04:54:17.454Z,3716.00
2018-07-27T04:55:17.252Z,3744.00
2018-07-27T04:56:17.216Z,3828.00
2018-07-27T04:57:17.075Z,4108.00
2018-07-27T04:58:16.986Z,4488.00
2018-07-27T04:59:16.930Z,4584.00
2018-07-27T05:00:16.812Z,4668.00
2018-07-27T05:01:16.814Z,4252.00
2018-07-27T05:02:16.655Z,4112.00
2018-07-27T05:03:16.552Z,4184.00
2018-07-27T05:04:16.488Z,4280.00
2018-07-27T05:05:16.370Z,4404.00
2018-07-27T05:06:16.283Z,4452.00
2018-07-27T05:07:16.195Z,4404.00
2018-07-27T05:08:16.202Z,4388.00
2018-07-27T05:09:16.019Z,4540.00
2018-07-27T05:10:15.959Z,4680.00
2018-07-27T05:11:15.843Z,4712.00
2018-07-27T05:12:15.753Z,5292.00
2018-07-27T05:13:15.666Z,5608.00
2018-07-27T05:14:15.591Z,5236.00
2018-07-27T05:15:15.627Z,5376.00
2018-07-27T05:16:15.405Z,5312.00
2018-07-27T05:17:15.320Z,6104.00
2018-07-27T05:18:15.266Z,6396.00
2018-07-27T05:19:15.146Z,5216.00
2018-07-27T05:20:15.087Z,4940.00
2018-07-27T05:21:14.965Z,4920.00
2018-07-27T05:22:14.969Z,4948.00
2018-07-27T05:23:14.792Z,5992.00
2018-07-27T05:24:14.707Z,6640.00
2018-07-27T05:25:14.647Z,5616.00
2018-07-27T05:26:14.529Z,5072.00
2018-07-27T05:27:14.444Z,5304.00
2018-07-27T05:28:14.356Z,6656.00
2018-07-27T05:29:14.267Z,8020.00
2018-07-27T05:30:14.210Z,6664.00
2018-07-27T05:31:14.094Z,5492.00
2018-07-27T05:32:14.006Z,5448.00
2018-07-27T05:33:13.917Z,5700.00
2018-07-27T05:34:13.871Z,5640.00
2018-07-27T05:35:13.798Z,6044.00
2018-07-27T05:36:13.750Z,7380.00
2018-07-27T05:37:13.571Z,8824.00
2018-07-27T05:38:13.482Z,7852.00
2018-07-27T05:39:13.398Z,6564.00
2018-07-27T05:40:13.340Z,5860.00
2018-07-27T05:41:13.223Z,6036.00
2018-07-27T05:42:13.139Z,6332.00
2018-07-27T05:43:13.050Z,5964.00
2018-07-27T05:44:12.968Z,5752.00
2018-07-27T05:45:12.907Z,5804.00
2018-07-27T05:46:12.794Z,5996.00
2018-07-27T05:47:12.752Z,5980.00
2018-07-27T05:48:12.622Z,6384.00
2018-07-27T05:49:12.536Z,6520.00
2018-07-27T05:50:12.475Z,6764.00
2018-07-27T05:51:12.359Z,8044.00
2018-07-27T05:52:12.272Z,14824.00
2018-07-27T05:53:12.188Z,15764.00
2018-07-27T05:54:12.098Z,10044.00
2018-07-27T05:55:12.046Z,7080.00
2018-07-27T05:56:11.925Z,6304.00
2018-07-27T05:57:11.841Z,6740.00
2018-07-27T05:58:11.753Z,7388.00
2018-07-27T05:59:11.676Z,7176.00
2018-07-27T06:00:11.611Z,6652.00
2018-07-27T06:01:11.499Z,6400.00
2018-07-27T06:02:11.414Z,6636.00
2018-07-27T06:03:11.323Z,6952.00
2018-07-27T06:04:11.242Z,6904.00
2018-07-27T06:05:11.187Z,7484.00
2018-07-27T06:06:11.066Z,7224.00
2018-07-27T06:07:10.980Z,7456.00
2018-07-27T06:08:10.894Z,7208.00
2018-07-27T06:09:10.813Z,7152.00
2018-07-27T06:10:10.755Z,7216.00
2018-07-27T06:11:10.691Z,6944.00
2018-07-27T06:12:10.552Z,6948.00
2018-07-27T06:13:10.466Z,7684.00
2018-07-27T06:14:10.384Z,7888.00
2018-07-27T06:15:10.329Z,7468.00
2018-07-27T06:16:10.209Z,7604.00
2018-07-27T06:17:10.124Z,7540.00
2018-07-27T06:18:10.075Z,7328.00
2018-07-27T06:19:09.954Z,7088.00
2018-07-27T06:20:09.899Z,7012.00
2018-07-27T06:21:09.786Z,7004.00
2018-07-27T06:22:09.699Z,7000.00
2018-07-27T06:23:09.619Z,7000.00
2018-07-27T06:24:09.611Z,7024.00
2018-07-27T06:25:09.474Z,7052.00
2018-07-27T06:26:09.359Z,7180.00
2018-07-27T06:27:09.274Z,7408.00
2018-07-27T06:28:09.208Z,7300.00
2018-07-27T06:29:09.135Z,7192.00
2018-07-27T06:30:09.051Z,7240.00
2018-07-27T06:31:08.935Z,7312.00
2018-07-27T06:32:08.847Z,7780.00
2018-07-27T06:33:08.763Z,7812.00
2018-07-27T06:34:08.679Z,9528.00
2018-07-27T06:35:08.619Z,10068.00
2018-07-27T06:36:08.511Z,8372.00
2018-07-27T06:37:08.426Z,8256.00
2018-07-27T06:38:08.340Z,7928.00
2018-07-27T06:39:08.303Z,7676.00
2018-07-27T06:40:08.171Z,7648.00
2018-07-27T06:41:08.116Z,7748.00
2018-07-27T06:42:08.002Z,7944.00
2018-07-27T06:43:07.917Z,9064.00
2018-07-27T06:44:07.832Z,10852.00
2018-07-27T06:45:07.766Z,13700.00
2018-07-27T06:46:07.697Z,15100.00
2018-07-27T06:47:07.583Z,21792.00
2018-07-27T06:48:07.495Z,22624.00
2018-07-27T06:49:07.415Z,27008.00
2018-07-27T06:50:07.326Z,30560.00
2018-07-27T06:51:07.275Z,30784.00
2018-07-27T06:52:07.159Z,31104.00
2018-07-27T06:53:07.074Z,31808.00
2018-07-27T06:54:06.989Z,32960.00
2018-07-27T06:55:06.910Z,34112.00
2018-07-27T06:56:06.855Z,34560.00
2018-07-27T06:57:06.742Z,34752.00
2018-07-27T06:58:06.657Z,35168.00
2018-07-27T06:59:06.574Z,36704.00
2018-07-27T07:00:06.493Z,40960.00
2018-07-27T07:01:06.440Z,45440.00
2018-07-27T07:02:06.324Z,49120.00
2018-07-27T07:03:06.246Z,50656.00
2018-07-27T07:04:06.164Z,50208.00
2018-07-27T07:05:06.082Z,45312.00
2018-07-27T07:06:06.027Z,42624.00
2018-07-27T07:07:05.914Z,42400.00
2018-07-27T07:08:05.831Z,45504.00
2018-07-27T07:09:05.773Z,49888.00
2018-07-27T07:10:05.672Z,50208.00
2018-07-27T07:11:05.623Z,50432.00
2018-07-27T07:12:05.508Z,51584.00
2018-07-27T07:13:05.431Z,53760.00
2018-07-27T07:14:05.351Z,53440.00
2018-07-27T07:15:05.267Z,50624.00
2018-07-27T07:16:05.217Z,48704.00
2018-07-27T07:17:05.110Z,47328.00
2018-07-27T07:18:05.032Z,48064.00
2018-07-27T07:19:04.947Z,49536.00
2018-07-27T07:20:04.963Z,50368.00
2018-07-27T07:21:04.819Z,52000.00
2018-07-27T07:22:04.708Z,51904.00
2018-07-27T07:23:04.634Z,50848.00
2018-07-27T07:24:04.550Z,51072.00
2018-07-27T07:25:04.519Z,54176.00
2018-07-27T07:26:04.840Z,55872.00
2018-07-27T07:27:04.418Z,56768.00
2018-07-27T07:28:04.232Z,56544.00
2018-07-27T07:29:04.154Z,56416.00
2018-07-27T07:30:04.073Z,55808.00
2018-07-27T07:31:04.027Z,55424.00
2018-07-27T07:32:03.915Z,54912.00
2018-07-27T07:33:03.848Z,53888.00
2018-07-27T07:34:03.850Z,56000.00
2018-07-27T07:35:03.679Z,59264.00
2018-07-27T07:36:03.629Z,58496.00
2018-07-27T07:37:03.521Z,55200.00
2018-07-27T07:38:03.441Z,52256.00
2018-07-27T07:39:03.375Z,53728.00
2018-07-27T07:40:03.285Z,56160.00
2018-07-27T07:41:03.332Z,57408.00
2018-07-27T07:42:03.130Z,56128.00
2018-07-27T07:43:03.053Z,56256.00
2018-07-27T07:44:02.978Z,57472.00
2018-07-27T07:45:02.958Z,58048.00
2018-07-27T07:46:02.847Z,60352.00
2018-07-27T07:47:02.742Z,62912.00
2018-07-27T07:48:02.755Z,63616.00
2018-07-27T07:49:02.585Z,62496.00
2018-07-27T07:50:02.508Z,60960.00
2018-07-27T07:51:02.476Z,61824.00
2018-07-27T07:52:02.354Z,63808.00
2018-07-27T07:53:02.272Z,64064.00
2018-07-27T07:54:02.208Z,66336.00
2018-07-27T07:55:02.215Z,65824.00
2018-07-27T07:56:02.047Z,45280.00
2018-07-27T07:57:01.997Z,31648.00
2018-07-27T07:58:01.888Z,59136.00
2018-07-27T07:59:01.813Z,60448.00
2018-07-27T08:00:01.734Z,60320.00
2018-07-27T08:01:01.656Z,60352.00
2018-07-27T08:02:01.706Z,62400.00
2018-07-27T08:03:01.504Z,61952.00
2018-07-27T08:04:01.427Z,61024.00
2018-07-27T08:05:01.352Z,60096.00
2018-07-27T08:06:01.274Z,57664.00
2018-07-27T08:07:01.226Z,54624.00
2018-07-27T08:08:01.121Z,56544.00
2018-07-27T08:09:01.135Z,61536.00
2018-07-27T08:10:00.965Z,62208.00
2018-07-27T08:11:00.886Z,64544.00
2018-07-27T08:12:00.843Z,66112.00
2018-07-27T08:13:00.735Z,65024.00
2018-07-27T08:14:00.658Z,64384.00
2018-07-27T08:15:00.596Z,66560.00
2018-07-27T08:16:00.689Z,19392.00
2018-07-27T08:17:00.462Z,16944.00
2018-07-27T08:18:00.354Z,17304.00
2018-07-27T08:19:00.277Z,72928.00
2018-07-27T08:20:00.202Z,68608.00
2018-07-27T08:21:00.125Z,69280.00
2018-07-27T08:22:00.077Z,70688.00
2018-07-27T08:22:59.973Z,16920.00
2018-07-27T08:23:59.896Z,15572.00
2018-07-27T08:24:59.825Z,15412.00
2018-07-27T08:25:59.769Z,17688.00
2018-07-27T08:26:59.699Z,18912.00
2018-07-27T08:27:59.591Z,33248.00
2018-07-27T08:28:59.512Z,76928.00
2018-07-27T08:29:59.437Z,24096.00
2018-07-27T08:30:59.360Z,80352.00
2018-07-27T08:31:59.315Z,19808.00
2018-07-27T08:32:59.204Z,74208.00
2018-07-27T08:33:59.129Z,72448.00
2018-07-27T08:34:59.055Z,76736.00
2018-07-27T08:35:58.974Z,69312.00
2018-07-27T08:36:58.942Z,77280.00
2018-07-27T08:37:58.823Z,74752.00
2018-07-27T08:38:58.790Z,67168.00
2018-07-27T08:39:58.681Z,57440.00
2018-07-27T08:40:58.588Z,58912.00
2018-07-27T08:41:58.511Z,72000.00
2018-07-27T08:42:58.467Z,72384.00
2018-07-27T08:43:58.362Z,73984.00
2018-07-27T08:44:58.275Z,75488.00
2018-07-27T08:45:58.203Z,81760.00
2018-07-27T08:46:58.124Z,85056.00
2018-07-27T08:47:58.079Z,88256.00
2018-07-27T08:48:58.009Z,85536.00
2018-07-27T08:49:57.891Z,87872.00
2018-07-27T08:50:57.815Z,79040.00
2018-07-27T08:51:57.750Z,66880.00
2018-07-27T08:52:57.692Z,80800.00
2018-07-27T08:53:57.584Z,100768.00
2018-07-27T08:54:57.506Z,94112.00
2018-07-27T08:55:57.428Z,92384.00
2018-07-27T08:56:57.351Z,92800.00
2018-07-27T08:57:57.304Z,95200.00
2018-07-27T08:58:57.200Z,94432.00
2018-07-27T08:59:57.119Z,94272.00
2018-07-27T09:00:57.044Z,40512.00
2018-07-27T09:01:56.968Z,38304.00
2018-07-27T09:02:56.921Z,42016.00
2018-07-27T09:03:56.858Z,23360.00
2018-07-27T09:04:56.733Z,23392.00
2018-07-27T09:05:56.661Z,23456.00
2018-07-27T09:06:56.582Z,35424.00
2018-07-27T09:07:56.537Z,65312.00
2018-07-27T09:08:56.429Z,71776.00
2018-07-27T09:09:56.354Z,93920.00
2018-07-27T09:10:56.276Z,97280.00
2018-07-27T09:11:56.202Z,98304.00
2018-07-27T09:12:56.151Z,92928.00
2018-07-27T09:13:56.051Z,87776.00
2018-07-27T09:14:55.972Z,84960.00
2018-07-27T09:15:55.893Z,86272.00
2018-07-27T09:16:55.816Z,92672.00
2018-07-27T09:17:55.768Z,32576.00
2018-07-27T09:18:55.660Z,45344.00
2018-07-27T09:19:55.584Z,29664.00
2018-07-27T09:20:55.506Z,20832.00
2018-07-27T09:21:55.431Z,19040.00
2018-07-27T09:22:55.384Z,17088.00
2018-07-27T09:23:55.282Z,13980.00
2018-07-27T09:24:55.435Z,12492.00
2018-07-27T09:25:55.219Z,12876.00
2018-07-27T09:26:55.045Z,13732.00
2018-07-27T09:27:54.999Z,14456.00
2018-07-27T09:28:54.891Z,13584.00
2018-07-27T09:29:54.811Z,12204.00
2018-07-27T09:30:54.733Z,11092.00
2018-07-27T09:31:54.655Z,9444.00
2018-07-27T09:32:54.607Z,8448.00
2018-07-27T09:33:54.498Z,7440.00
2018-07-27T09:34:54.421Z,6212.00
2018-07-27T09:35:54.344Z,5164.00
2018-07-27T09:36:54.265Z,4448.00
2018-07-27T09:37:54.186Z,3900.00
2018-07-27T09:38:54.132Z,3484.00
2018-07-27T09:39:54.026Z,3216.00
2018-07-27T09:40:53.946Z,3004.00
2018-07-27T09:41:53.864Z,3052.00
2018-07-27T09:42:53.789Z,3016.00
2018-07-27T09:43:53.737Z,3004.00
2018-07-27T09:44:53.623Z,2964.00
2018-07-27T09:45:53.545Z,3076.00
2018-07-27T09:46:53.469Z,3256.00
2018-07-27T09:47:53.383Z,3232.00
2018-07-27T09:48:53.331Z,3592.00
2018-07-27T09:49:53.221Z,3084.00
2018-07-27T09:50:53.143Z,3560.00
2018-07-27T09:51:53.061Z,4016.00
2018-07-27T09:52:52.980Z,4136.00
2018-07-27T09:53:52.950Z,4408.00
2018-07-27T09:54:52.812Z,4484.00
2018-07-27T09:55:52.731Z,4272.00
2018-07-27T09:56:52.644Z,3756.00
2018-07-27T09:57:52.573Z,3276.00
2018-07-27T09:58:52.511Z,2820.00
2018-07-27T09:59:52.395Z,2448.00
2018-07-27T10:00:52.405Z,2344.00
2018-07-27T10:01:52.229Z,2312.00
2018-07-27T10:02:52.150Z,2408.00
2018-07-27T10:03:52.097Z,2616.00
2018-07-27T10:04:51.979Z,2912.00
2018-07-27T10:05:51.950Z,3216.00
2018-07-27T10:06:51.802Z,3436.00
2018-07-27T10:07:51.806Z,3696.00
2018-07-27T10:08:51.658Z,3916.00
2018-07-27T10:09:51.544Z,4280.00
2018-07-27T10:10:51.457Z,4564.00
2018-07-27T10:11:51.374Z,4632.00
2018-07-27T10:12:51.312Z,5512.00
2018-07-27T10:13:51.231Z,5588.00
2018-07-27T10:14:51.115Z,6288.00
2018-07-27T10:15:51.027Z,6684.00
2018-07-27T10:16:50.946Z,7052.00
2018-07-27T10:17:50.855Z,7808.00
2018-07-27T10:18:50.807Z,8216.00
2018-07-27T10:19:50.681Z,8712.00
2018-07-27T10:20:50.594Z,9280.00
2018-07-27T10:21:50.598Z,9824.00
2018-07-27T10:22:50.423Z,10348.00
2018-07-27T10:23:50.337Z,10944.00
2018-07-27T10:24:50.277Z,11552.00
2018-07-27T10:25:50.161Z,12156.00
2018-07-27T10:26:50.076Z,12864.00
2018-07-27T10:27:49.986Z,13800.00
2018-07-27T10:28:49.989Z,14932.00
2018-07-27T10:29:49.845Z,16308.00
2018-07-27T10:30:49.724Z,17952.00
2018-07-27T10:31:49.638Z,19392.00
2018-07-27T10:32:49.552Z,20480.00
2018-07-27T10:33:49.463Z,21376.00
2018-07-27T10:34:49.409Z,22400.00
2018-07-27T10:35:49.394Z,23520.00
2018-07-27T10:36:49.202Z,24672.00
2018-07-27T10:37:49.119Z,25952.00
2018-07-27T10:38:49.029Z,26816.00
2018-07-27T10:39:48.970Z,27552.00
2018-07-27T10:40:48.863Z,28128.00
2018-07-27T10:41:48.770Z,28832.00
2018-07-27T10:42:48.773Z,29472.00
2018-07-27T10:43:48.593Z,30304.00
2018-07-27T10:44:48.549Z,31328.00
2018-07-27T10:45:48.419Z,32256.00
2018-07-27T10:46:48.331Z,33152.00
2018-07-27T10:47:48.248Z,34272.00
2018-07-27T10:48:48.158Z,36352.00
2018-07-27T10:49:48.198Z,38464.00
2018-07-27T10:50:47.986Z,39648.00
2018-07-27T10:51:47.898Z,41024.00
2018-07-27T10:52:47.813Z,42048.00
2018-07-27T10:53:47.726Z,42016.00
2018-07-27T10:54:47.671Z,44416.00
2018-07-27T10:55:47.556Z,34496.00
2018-07-27T10:56:47.561Z,29728.00
2018-07-27T10:57:47.383Z,28384.00
2018-07-27T10:58:47.295Z,27360.00
2018-07-27T10:59:47.213Z,27040.00
2018-07-27T11:00:47.155Z,26656.00
2018-07-27T11:01:47.042Z,26048.00
2018-07-27T11:02:46.955Z,25440.00
2018-07-27T11:03:46.960Z,24352.00
2018-07-27T11:04:46.786Z,23488.00
2018-07-27T11:05:46.727Z,22944.00
2018-07-27T11:06:46.612Z,22528.00
2018-07-27T11:07:46.530Z,22208.00
2018-07-27T11:08:46.541Z,21920.00
2018-07-27T11:09:46.409Z,21888.00
2018-07-27T11:10:46.397Z,22112.00
2018-07-27T11:11:46.188Z,22208.00
2018-07-27T11:12:46.101Z,21472.00
2018-07-27T11:13:46.018Z,20544.00
2018-07-27T11:14:45.937Z,20032.00
2018-07-27T11:15:45.882Z,20544.00
2018-07-27T11:16:45.852Z,21152.00
2018-07-27T11:17:45.715Z,21824.00
2018-07-27T11:18:45.598Z,22560.00
2018-07-27T11:19:45.508Z,23296.00
2018-07-27T11:20:45.468Z,24096.00
2018-07-27T11:21:45.339Z,25280.00
2018-07-27T11:22:45.255Z,26592.00
2018-07-27T11:23:45.290Z,28160.00
2018-07-27T11:24:45.086Z,29504.00
2018-07-27T11:25:45.035Z,30528.00
2018-07-27T11:26:44.916Z,31520.00
2018-07-27T11:27:44.830Z,32896.00
2018-07-27T11:28:44.753Z,34784.00
2018-07-27T11:29:44.663Z,36384.00
2018-07-27T11:30:44.607Z,38176.00
2018-07-27T11:31:44.494Z,42112.00
2018-07-27T11:32:44.409Z,74432.00
2018-07-27T11:33:44.325Z,107904.00
2018-07-27T11:34:44.243Z,112576.00
2018-07-27T11:35:44.187Z,66080.00
2018-07-27T11:36:44.074Z,99776.00
2018-07-27T11:37:43.990Z,67488.00
2018-07-27T11:38:43.907Z,48608.00
2018-07-27T11:39:43.824Z,86560.00
2018-07-27T11:40:43.767Z,67424.00
2018-07-27T11:41:43.656Z,52096.00
2018-07-27T11:42:43.588Z,45184.00
2018-07-27T11:43:43.493Z,97856.00
2018-07-27T11:44:43.407Z,94240.00
2018-07-27T11:45:43.363Z,93568.00
2018-07-27T11:46:43.244Z,90432.00
2018-07-27T11:47:43.162Z,95872.00
2018-07-27T11:48:43.082Z,71232.00
2018-07-27T11:49:42.996Z,70080.00
2018-07-27T11:50:42.921Z,100448.00
2018-07-27T11:51:42.866Z,93248.00
2018-07-27T11:52:42.754Z,93792.00
2018-07-27T11:53:42.671Z,85952.00
2018-07-27T11:54:42.592Z,89696.00
2018-07-27T11:55:42.512Z,101984.00
2018-07-27T11:56:42.462Z,65888.00
2018-07-27T11:57:42.350Z,100736.00
2018-07-27T11:58:42.269Z,105120.00
2018-07-27T11:59:42.191Z,90720.00
2018-07-27T12:00:42.112Z,110016.00
2018-07-27T12:01:42.112Z,102752.00
2018-07-27T12:02:41.950Z,42176.00
2018-07-27T12:03:41.870Z,30368.00
2018-07-27T12:04:41.789Z,34464.00
2018-07-27T12:05:41.712Z,26592.00
2018-07-27T12:06:41.661Z,24704.00
2018-07-27T12:07:41.553Z,61312.00
2018-07-27T12:08:41.473Z,88864.00
2018-07-27T12:09:41.391Z,101504.00
2018-07-27T12:10:41.316Z,82592.00
2018-07-27T12:11:41.264Z,40640.00
2018-07-27T12:12:41.153Z,24704.00
2018-07-27T12:13:41.077Z,26912.00
2018-07-27T12:14:41.017Z,56672.00